sensor_id;sensor_type;location;lat;lon;timestamp;P1;durP1;ratioP1;P2;durP2;ratioP2
27163;SDS011;14685;50.618;7.024;2023-04-25T00:00:56;11.57;;;7.15;;
27163;SDS011;14685;50.618;7.024;2023-04-25T00:03:24;10.32;;;6.60;;
27163;SDS011;14685;50.618;7.024;2023-04-25T00:05:51;13.70;;;7.40;;
27163;SDS011;14685;50.618;7.024;2023-04-25T00:08:18;12.10;;;7.15;;
27163;SDS011;14685;50.618;7.024;2023-04-25T00:10:45;11.02;;;7.35;;
27163;SDS011;14685;50.618;7.024;2023-04-25T00:13:12;10.77;;;7.22;;
27163;SDS011;14685;50.618;7.024;2023-04-25T00:15:39;9.95;;;7.72;;
27163;SDS011;14685;50.618;7.024;2023-04-25T00:18:08;13.25;;;8.30;;
27163;SDS011;14685;50.618;7.024;2023-04-25T00:20:35;10.43;;;7.72;;
27163;SDS011;14685;50.618;7.024;2023-04-25T00:23:02;7.55;;;6.70;;
27163;SDS011;14685;50.618;7.024;2023-04-25T00:25:29;8.82;;;6.78;;
27163;SDS011;14685;50.618;7.024;2023-04-25T00:27:56;11.25;;;7.57;;
27163;SDS011;14685;50.618;7.024;2023-04-25T00:30:23;12.25;;;7.80;;
27163;SDS011;14685;50.618;7.024;2023-04-25T00:32:50;11.73;;;8.13;;
27163;SDS011;14685;50.618;7.024;2023-04-25T00:35:18;9.10;;;7.15;;
27163;SDS011;14685;50.618;7.024;2023-04-25T00:37:45;12.88;;;7.88;;
27163;SDS011;14685;50.618;7.024;2023-04-25T00:40:12;11.48;;;8.07;;
27163;SDS011;14685;50.618;7.024;2023-04-25T00:42:39;11.90;;;7.43;;
27163;SDS011;14685;50.618;7.024;2023-04-25T00:45:06;8.75;;;7.05;;
27163;SDS011;14685;50.618;7.024;2023-04-25T00:47:36;9.18;;;6.97;;
27163;SDS011;14685;50.618;7.024;2023-04-25T00:50:05;13.30;;;7.53;;
27163;SDS011;14685;50.618;7.024;2023-04-25T00:52:33;12.02;;;7.38;;
27163;SDS011;14685;50.618;7.024;2023-04-25T00:55:00;12.77;;;7.45;;
27163;SDS011;14685;50.618;7.024;2023-04-25T00:57:28;11.75;;;7.05;;
27163;SDS011;14685;50.618;7.024;2023-04-25T00:59:55;11.48;;;7.65;;
27163;SDS011;14685;50.618;7.024;2023-04-25T01:02:22;12.70;;;7.68;;
27163;SDS011;14685;50.618;7.024;2023-04-25T01:04:50;13.10;;;6.72;;
27163;SDS011;14685;50.618;7.024;2023-04-25T01:07:17;12.32;;;6.82;;
27163;SDS011;14685;50.618;7.024;2023-04-25T01:09:44;12.18;;;7.20;;
27163;SDS011;14685;50.618;7.024;2023-04-25T01:12:11;15.35;;;7.95;;
27163;SDS011;14685;50.618;7.024;2023-04-25T01:14:39;11.48;;;6.55;;
27163;SDS011;14685;50.618;7.024;2023-04-25T01:17:06;12.15;;;7.10;;
27163;SDS011;14685;50.618;7.024;2023-04-25T01:19:34;10.27;;;6.82;;
27163;SDS011;14685;50.618;7.024;2023-04-25T01:22:01;10.65;;;7.20;;
27163;SDS011;14685;50.618;7.024;2023-04-25T01:24:32;12.50;;;6.97;;
27163;SDS011;14685;50.618;7.024;2023-04-25T01:27:00;10.98;;;6.28;;
27163;SDS011;14685;50.618;7.024;2023-04-25T01:29:28;9.80;;;6.55;;
27163;SDS011;14685;50.618;7.024;2023-04-25T01:31:55;11.90;;;6.80;;
27163;SDS011;14685;50.618;7.024;2023-04-25T01:34:22;11.48;;;7.13;;
27163;SDS011;14685;50.618;7.024;2023-04-25T01:36:50;13.90;;;7.15;;
27163;SDS011;14685;50.618;7.024;2023-04-25T01:39:17;11.77;;;6.93;;
27163;SDS011;14685;50.618;7.024;2023-04-25T01:41:45;10.15;;;6.90;;
27163;SDS011;14685;50.618;7.024;2023-04-25T01:44:13;10.90;;;6.60;;
27163;SDS011;14685;50.618;7.024;2023-04-25T01:46:40;12.80;;;7.13;;
27163;SDS011;14685;50.618;7.024;2023-04-25T01:49:08;10.20;;;6.60;;
27163;SDS011;14685;50.618;7.024;2023-04-25T01:51:35;13.57;;;6.80;;
27163;SDS011;14685;50.618;7.024;2023-04-25T01:54:03;12.00;;;7.15;;
27163;SDS011;14685;50.618;7.024;2023-04-25T01:56:31;12.52;;;7.30;;
27163;SDS011;14685;50.618;7.024;2023-04-25T01:58:59;10.23;;;7.05;;
27163;SDS011;14685;50.618;7.024;2023-04-25T02:01:26;13.68;;;6.75;;
27163;SDS011;14685;50.618;7.024;2023-04-25T02:03:53;14.68;;;7.00;;
27163;SDS011;14685;50.618;7.024;2023-04-25T02:06:21;10.80;;;7.25;;
27163;SDS011;14685;50.618;7.024;2023-04-25T02:08:48;11.18;;;7.40;;
27163;SDS011;14685;50.618;7.024;2023-04-25T02:11:16;10.77;;;6.75;;
27163;SDS011;14685;50.618;7.024;2023-04-25T02:13:43;12.07;;;7.03;;
27163;SDS011;14685;50.618;7.024;2023-04-25T02:16:09;14.30;;;7.70;;
27163;SDS011;14685;50.618;7.024;2023-04-25T02:18:36;12.32;;;6.88;;
27163;SDS011;14685;50.618;7.024;2023-04-25T02:21:04;14.00;;;7.00;;
27163;SDS011;14685;50.618;7.024;2023-04-25T02:23:32;11.35;;;6.57;;
27163;SDS011;14685;50.618;7.024;2023-04-25T02:25:59;11.93;;;6.80;;
27163;SDS011;14685;50.618;7.024;2023-04-25T02:28:26;12.05;;;7.25;;
27163;SDS011;14685;50.618;7.024;2023-04-25T02:30:53;13.48;;;7.00;;
27163;SDS011;14685;50.618;7.024;2023-04-25T02:33:20;15.55;;;7.43;;
27163;SDS011;14685;50.618;7.024;2023-04-25T02:35:47;12.50;;;7.10;;
27163;SDS011;14685;50.618;7.024;2023-04-25T02:38:14;15.20;;;7.32;;
27163;SDS011;14685;50.618;7.024;2023-04-25T02:40:41;11.05;;;6.63;;
27163;SDS011;14685;50.618;7.024;2023-04-25T02:43:08;12.75;;;6.95;;
27163;SDS011;14685;50.618;7.024;2023-04-25T02:45:35;12.95;;;6.57;;
27163;SDS011;14685;50.618;7.024;2023-04-25T02:48:02;11.48;;;6.90;;
27163;SDS011;14685;50.618;7.024;2023-04-25T02:50:29;13.82;;;6.97;;
27163;SDS011;14685;50.618;7.024;2023-04-25T02:52:56;13.13;;;6.90;;
27163;SDS011;14685;50.618;7.024;2023-04-25T02:55:23;10.55;;;6.93;;
27163;SDS011;14685;50.618;7.024;2023-04-25T02:57:52;18.25;;;7.15;;
27163;SDS011;14685;50.618;7.024;2023-04-25T03:00:22;16.02;;;7.05;;
27163;SDS011;14685;50.618;7.024;2023-04-25T03:02:50;13.70;;;6.70;;
27163;SDS011;14685;50.618;7.024;2023-04-25T03:05:17;10.07;;;6.20;;
27163;SDS011;14685;50.618;7.024;2023-04-25T03:07:44;13.52;;;6.68;;
27163;SDS011;14685;50.618;7.024;2023-04-25T03:10:12;16.77;;;7.13;;
27163;SDS011;14685;50.618;7.024;2023-04-25T03:12:39;15.23;;;6.82;;
27163;SDS011;14685;50.618;7.024;2023-04-25T03:15:06;13.52;;;6.78;;
27163;SDS011;14685;50.618;7.024;2023-04-25T03:17:33;15.65;;;7.07;;
27163;SDS011;14685;50.618;7.024;2023-04-25T03:20:00;13.98;;;6.85;;
27163;SDS011;14685;50.618;7.024;2023-04-25T03:22:27;15.65;;;6.47;;
27163;SDS011;14685;50.618;7.024;2023-04-25T03:24:54;22.73;;;7.22;;
27163;SDS011;14685;50.618;7.024;2023-04-25T03:27:21;12.90;;;5.78;;
27163;SDS011;14685;50.618;7.024;2023-04-25T03:29:50;13.55;;;6.30;;
27163;SDS011;14685;50.618;7.024;2023-04-25T03:32:18;19.77;;;7.25;;
27163;SDS011;14685;50.618;7.024;2023-04-25T03:34:46;16.67;;;6.82;;
27163;SDS011;14685;50.618;7.024;2023-04-25T03:37:12;15.82;;;6.68;;
27163;SDS011;14685;50.618;7.024;2023-04-25T03:39:39;16.42;;;7.55;;
27163;SDS011;14685;50.618;7.024;2023-04-25T03:42:06;15.20;;;6.80;;
27163;SDS011;14685;50.618;7.024;2023-04-25T03:44:33;18.75;;;6.82;;
27163;SDS011;14685;50.618;7.024;2023-04-25T03:47:00;17.00;;;6.60;;
27163;SDS011;14685;50.618;7.024;2023-04-25T03:49:27;15.45;;;7.03;;
27163;SDS011;14685;50.618;7.024;2023-04-25T03:51:56;18.08;;;7.10;;
27163;SDS011;14685;50.618;7.024;2023-04-25T03:54:23;15.32;;;6.68;;
27163;SDS011;14685;50.618;7.024;2023-04-25T03:56:51;14.43;;;6.85;;
27163;SDS011;14685;50.618;7.024;2023-04-25T03:59:18;17.58;;;6.80;;
27163;SDS011;14685;50.618;7.024;2023-04-25T04:01:45;16.80;;;6.18;;
27163;SDS011;14685;50.618;7.024;2023-04-25T04:04:12;14.73;;;6.85;;
27163;SDS011;14685;50.618;7.024;2023-04-25T04:06:39;20.85;;;7.05;;
27163;SDS011;14685;50.618;7.024;2023-04-25T04:09:06;15.38;;;6.13;;
27163;SDS011;14685;50.618;7.024;2023-04-25T04:11:37;14.43;;;6.22;;
27163;SDS011;14685;50.618;7.024;2023-04-25T04:14:07;18.10;;;6.55;;
27163;SDS011;14685;50.618;7.024;2023-04-25T04:16:36;17.90;;;6.93;;
27163;SDS011;14685;50.618;7.024;2023-04-25T04:19:03;16.38;;;6.20;;
27163;SDS011;14685;50.618;7.024;2023-04-25T04:21:31;18.30;;;6.10;;
27163;SDS011;14685;50.618;7.024;2023-04-25T04:24:00;13.57;;;6.18;;
27163;SDS011;14685;50.618;7.024;2023-04-25T04:26:27;14.60;;;6.80;;
27163;SDS011;14685;50.618;7.024;2023-04-25T04:28:55;14.50;;;6.88;;
27163;SDS011;14685;50.618;7.024;2023-04-25T04:31:22;17.83;;;6.13;;
27163;SDS011;14685;50.618;7.024;2023-04-25T04:33:50;16.90;;;6.57;;
27163;SDS011;14685;50.618;7.024;2023-04-25T04:36:17;19.40;;;7.07;;
27163;SDS011;14685;50.618;7.024;2023-04-25T04:38:48;16.15;;;6.47;;
27163;SDS011;14685;50.618;7.024;2023-04-25T04:41:15;17.33;;;6.53;;
27163;SDS011;14685;50.618;7.024;2023-04-25T04:43:42;19.15;;;7.40;;
27163;SDS011;14685;50.618;7.024;2023-04-25T04:46:09;18.05;;;6.97;;
27163;SDS011;14685;50.618;7.024;2023-04-25T04:48:36;17.50;;;6.95;;
27163;SDS011;14685;50.618;7.024;2023-04-25T04:51:06;18.98;;;6.78;;
27163;SDS011;14685;50.618;7.024;2023-04-25T04:53:33;16.15;;;6.35;;
27163;SDS011;14685;50.618;7.024;2023-04-25T04:56:02;21.27;;;7.97;;
27163;SDS011;14685;50.618;7.024;2023-04-25T04:58:29;15.95;;;6.88;;
27163;SDS011;14685;50.618;7.024;2023-04-25T05:00:57;16.63;;;7.55;;
27163;SDS011;14685;50.618;7.024;2023-04-25T05:03:24;17.55;;;7.40;;
27163;SDS011;14685;50.618;7.024;2023-04-25T05:05:51;15.02;;;6.78;;
27163;SDS011;14685;50.618;7.024;2023-04-25T05:08:18;15.13;;;7.53;;
27163;SDS011;14685;50.618;7.024;2023-04-25T05:10:45;19.38;;;7.05;;
27163;SDS011;14685;50.618;7.024;2023-04-25T05:13:11;19.30;;;7.03;;
27163;SDS011;14685;50.618;7.024;2023-04-25T05:15:38;19.55;;;7.60;;
27163;SDS011;14685;50.618;7.024;2023-04-25T05:18:05;16.45;;;6.93;;
27163;SDS011;14685;50.618;7.024;2023-04-25T05:20:32;16.38;;;6.95;;
27163;SDS011;14685;50.618;7.024;2023-04-25T05:22:59;17.90;;;7.03;;
27163;SDS011;14685;50.618;7.024;2023-04-25T05:25:27;17.15;;;7.13;;
27163;SDS011;14685;50.618;7.024;2023-04-25T05:27:54;17.85;;;6.60;;
27163;SDS011;14685;50.618;7.024;2023-04-25T05:30:20;18.20;;;7.15;;
27163;SDS011;14685;50.618;7.024;2023-04-25T05:32:47;13.43;;;6.35;;
27163;SDS011;14685;50.618;7.024;2023-04-25T05:35:14;16.65;;;6.15;;
27163;SDS011;14685;50.618;7.024;2023-04-25T05:37:41;20.63;;;6.13;;
27163;SDS011;14685;50.618;7.024;2023-04-25T05:40:09;19.58;;;6.05;;
27163;SDS011;14685;50.618;7.024;2023-04-25T05:42:36;16.30;;;6.75;;
27163;SDS011;14685;50.618;7.024;2023-04-25T05:45:04;18.00;;;6.70;;
27163;SDS011;14685;50.618;7.024;2023-04-25T05:47:32;16.02;;;6.18;;
27163;SDS011;14685;50.618;7.024;2023-04-25T05:49:59;21.05;;;7.28;;
27163;SDS011;14685;50.618;7.024;2023-04-25T05:52:25;16.65;;;6.72;;
27163;SDS011;14685;50.618;7.024;2023-04-25T05:54:52;17.48;;;6.88;;
27163;SDS011;14685;50.618;7.024;2023-04-25T05:57:23;19.45;;;6.75;;
27163;SDS011;14685;50.618;7.024;2023-04-25T05:59:51;21.25;;;6.57;;
27163;SDS011;14685;50.618;7.024;2023-04-25T06:02:21;15.00;;;6.45;;
27163;SDS011;14685;50.618;7.024;2023-04-25T06:04:49;20.15;;;7.10;;
27163;SDS011;14685;50.618;7.024;2023-04-25T06:07:18;15.77;;;6.22;;
27163;SDS011;14685;50.618;7.024;2023-04-25T06:09:46;18.85;;;6.38;;
27163;SDS011;14685;50.618;7.024;2023-04-25T06:12:14;17.67;;;6.38;;
27163;SDS011;14685;50.618;7.024;2023-04-25T06:14:41;16.60;;;6.10;;
27163;SDS011;14685;50.618;7.024;2023-04-25T06:17:08;20.48;;;6.20;;
27163;SDS011;14685;50.618;7.024;2023-04-25T06:19:36;24.63;;;7.00;;
27163;SDS011;14685;50.618;7.024;2023-04-25T06:22:03;17.48;;;6.25;;
27163;SDS011;14685;50.618;7.024;2023-04-25T06:24:30;21.95;;;5.78;;
27163;SDS011;14685;50.618;7.024;2023-04-25T06:26:57;20.90;;;6.53;;
27163;SDS011;14685;50.618;7.024;2023-04-25T06:29:23;18.35;;;6.07;;
27163;SDS011;14685;50.618;7.024;2023-04-25T06:31:51;23.67;;;6.65;;
27163;SDS011;14685;50.618;7.024;2023-04-25T06:34:18;23.73;;;6.97;;
27163;SDS011;14685;50.618;7.024;2023-04-25T06:36:45;15.43;;;6.32;;
27163;SDS011;14685;50.618;7.024;2023-04-25T06:39:12;16.98;;;6.18;;
27163;SDS011;14685;50.618;7.024;2023-04-25T06:41:39;16.02;;;6.18;;
27163;SDS011;14685;50.618;7.024;2023-04-25T06:44:06;18.35;;;6.05;;
27163;SDS011;14685;50.618;7.024;2023-04-25T06:46:32;19.80;;;6.03;;
27163;SDS011;14685;50.618;7.024;2023-04-25T06:48:59;22.60;;;5.90;;
27163;SDS011;14685;50.618;7.024;2023-04-25T06:51:28;22.70;;;6.13;;
27163;SDS011;14685;50.618;7.024;2023-04-25T06:53:57;17.23;;;6.03;;
27163;SDS011;14685;50.618;7.024;2023-04-25T06:56:23;19.05;;;5.35;;
27163;SDS011;14685;50.618;7.024;2023-04-25T06:58:50;18.17;;;5.55;;
27163;SDS011;14685;50.618;7.024;2023-04-25T07:01:18;18.35;;;6.68;;
27163;SDS011;14685;50.618;7.024;2023-04-25T07:03:45;20.70;;;6.18;;
27163;SDS011;14685;50.618;7.024;2023-04-25T07:06:12;21.05;;;5.60;;
27163;SDS011;14685;50.618;7.024;2023-04-25T07:08:40;19.90;;;6.15;;
27163;SDS011;14685;50.618;7.024;2023-04-25T07:11:07;19.23;;;5.95;;
27163;SDS011;14685;50.618;7.024;2023-04-25T07:13:34;17.33;;;5.93;;
27163;SDS011;14685;50.618;7.024;2023-04-25T07:16:01;19.50;;;5.75;;
27163;SDS011;14685;50.618;7.024;2023-04-25T07:18:28;18.20;;;5.63;;
27163;SDS011;14685;50.618;7.024;2023-04-25T07:20:56;16.63;;;5.45;;
27163;SDS011;14685;50.618;7.024;2023-04-25T07:23:24;16.45;;;5.45;;
27163;SDS011;14685;50.618;7.024;2023-04-25T07:25:51;20.48;;;6.20;;
27163;SDS011;14685;50.618;7.024;2023-04-25T07:28:18;18.83;;;6.15;;
27163;SDS011;14685;50.618;7.024;2023-04-25T07:30:45;15.15;;;4.97;;
27163;SDS011;14685;50.618;7.024;2023-04-25T07:33:12;18.83;;;5.25;;
27163;SDS011;14685;50.618;7.024;2023-04-25T07:35:39;20.30;;;5.90;;
27163;SDS011;14685;50.618;7.024;2023-04-25T07:38:06;15.85;;;5.22;;
27163;SDS011;14685;50.618;7.024;2023-04-25T07:40:33;15.43;;;5.50;;
27163;SDS011;14685;50.618;7.024;2023-04-25T07:43:00;20.50;;;5.43;;
27163;SDS011;14685;50.618;7.024;2023-04-25T07:45:27;11.07;;;4.28;;
27163;SDS011;14685;50.618;7.024;2023-04-25T07:47:54;14.38;;;5.50;;
27163;SDS011;14685;50.618;7.024;2023-04-25T07:50:21;15.50;;;4.57;;
27163;SDS011;14685;50.618;7.024;2023-04-25T07:52:47;14.43;;;4.15;;
27163;SDS011;14685;50.618;7.024;2023-04-25T07:55:14;21.48;;;4.80;;
27163;SDS011;14685;50.618;7.024;2023-04-25T07:57:41;13.77;;;4.50;;
27163;SDS011;14685;50.618;7.024;2023-04-25T08:00:08;14.85;;;5.22;;
27163;SDS011;14685;50.618;7.024;2023-04-25T08:02:36;21.02;;;5.32;;
27163;SDS011;14685;50.618;7.024;2023-04-25T08:05:04;18.48;;;4.40;;
27163;SDS011;14685;50.618;7.024;2023-04-25T08:07:31;15.48;;;4.63;;
27163;SDS011;14685;50.618;7.024;2023-04-25T08:09:58;18.20;;;4.72;;
27163;SDS011;14685;50.618;7.024;2023-04-25T08:12:26;16.45;;;4.85;;
27163;SDS011;14685;50.618;7.024;2023-04-25T08:14:53;12.95;;;4.30;;
27163;SDS011;14685;50.618;7.024;2023-04-25T08:17:20;15.95;;;4.05;;
27163;SDS011;14685;50.618;7.024;2023-04-25T08:19:47;14.65;;;4.18;;
27163;SDS011;14685;50.618;7.024;2023-04-25T08:22:16;15.73;;;4.35;;
27163;SDS011;14685;50.618;7.024;2023-04-25T08:24:42;11.75;;;4.55;;
27163;SDS011;14685;50.618;7.024;2023-04-25T08:27:09;18.55;;;4.63;;
27163;SDS011;14685;50.618;7.024;2023-04-25T08:29:38;25.10;;;4.97;;
27163;SDS011;14685;50.618;7.024;2023-04-25T08:32:04;9.95;;;3.50;;
27163;SDS011;14685;50.618;7.024;2023-04-25T08:34:34;13.30;;;3.88;;
27163;SDS011;14685;50.618;7.024;2023-04-25T08:37:03;11.98;;;3.92;;
27163;SDS011;14685;50.618;7.024;2023-04-25T08:39:30;14.48;;;3.72;;
27163;SDS011;14685;50.618;7.024;2023-04-25T08:41:57;15.63;;;3.75;;
27163;SDS011;14685;50.618;7.024;2023-04-25T08:44:24;14.73;;;4.00;;
27163;SDS011;14685;50.618;7.024;2023-04-25T08:46:52;12.95;;;3.70;;
27163;SDS011;14685;50.618;7.024;2023-04-25T08:49:19;17.67;;;3.38;;
27163;SDS011;14685;50.618;7.024;2023-04-25T08:51:46;13.40;;;3.65;;
27163;SDS011;14685;50.618;7.024;2023-04-25T08:54:14;11.32;;;3.25;;
27163;SDS011;14685;50.618;7.024;2023-04-25T08:57:01;13.90;;;4.20;;
27163;SDS011;14685;50.618;7.024;2023-04-25T08:59:28;12.55;;;3.50;;
27163;SDS011;14685;50.618;7.024;2023-04-25T09:01:57;15.15;;;4.10;;
27163;SDS011;14685;50.618;7.024;2023-04-25T09:04:24;14.77;;;3.40;;
27163;SDS011;14685;50.618;7.024;2023-04-25T09:06:51;15.93;;;3.03;;
27163;SDS011;14685;50.618;7.024;2023-04-25T09:09:18;13.93;;;2.95;;
27163;SDS011;14685;50.618;7.024;2023-04-25T09:11:45;12.65;;;3.85;;
27163;SDS011;14685;50.618;7.024;2023-04-25T09:14:13;15.65;;;4.57;;
27163;SDS011;14685;50.618;7.024;2023-04-25T09:19:23;17.17;;;3.92;;
27163;SDS011;14685;50.618;7.024;2023-04-25T09:22:06;12.82;;;3.67;;
27163;SDS011;14685;50.618;7.024;2023-04-25T09:24:40;12.18;;;3.38;;
27163;SDS011;14685;50.618;7.024;2023-04-25T09:27:13;13.48;;;3.40;;
27163;SDS011;14685;50.618;7.024;2023-04-25T09:29:45;11.43;;;3.60;;
27163;SDS011;14685;50.618;7.024;2023-04-25T09:32:30;10.70;;;3.17;;
27163;SDS011;14685;50.618;7.024;2023-04-25T09:34:57;16.63;;;4.30;;
27163;SDS011;14685;50.618;7.024;2023-04-25T09:37:28;13.02;;;3.30;;
27163;SDS011;14685;50.618;7.024;2023-04-25T09:39:57;10.35;;;2.42;;
27163;SDS011;14685;50.618;7.024;2023-04-25T09:42:27;10.00;;;2.90;;
27163;SDS011;14685;50.618;7.024;2023-04-25T09:44:58;12.63;;;3.05;;
27163;SDS011;14685;50.618;7.024;2023-04-25T09:47:28;10.48;;;2.97;;
27163;SDS011;14685;50.618;7.024;2023-04-25T09:49:55;13.02;;;3.05;;
27163;SDS011;14685;50.618;7.024;2023-04-25T09:52:23;8.13;;;2.83;;
27163;SDS011;14685;50.618;7.024;2023-04-25T09:54:51;12.95;;;3.58;;
27163;SDS011;14685;50.618;7.024;2023-04-25T09:57:19;14.55;;;2.95;;
27163;SDS011;14685;50.618;7.024;2023-04-25T09:59:48;6.60;;;2.70;;
27163;SDS011;14685;50.618;7.024;2023-04-25T10:02:18;10.85;;;3.17;;
27163;SDS011;14685;50.618;7.024;2023-04-25T10:04:47;10.45;;;2.75;;
27163;SDS011;14685;50.618;7.024;2023-04-25T10:07:19;12.52;;;2.90;;
27163;SDS011;14685;50.618;7.024;2023-04-25T10:09:58;11.10;;;3.20;;
27163;SDS011;14685;50.618;7.024;2023-04-25T10:12:28;7.53;;;2.40;;
27163;SDS011;14685;50.618;7.024;2023-04-25T10:14:57;9.00;;;2.33;;
27163;SDS011;14685;50.618;7.024;2023-04-25T10:17:27;8.77;;;2.58;;
27163;SDS011;14685;50.618;7.024;2023-04-25T10:19:54;8.70;;;2.90;;
27163;SDS011;14685;50.618;7.024;2023-04-25T10:22:35;6.38;;;2.47;;
27163;SDS011;14685;50.618;7.024;2023-04-25T10:25:05;8.40;;;2.40;;
27163;SDS011;14685;50.618;7.024;2023-04-25T10:27:36;15.25;;;3.15;;
27163;SDS011;14685;50.618;7.024;2023-04-25T10:30:08;10.00;;;2.55;;
27163;SDS011;14685;50.618;7.024;2023-04-25T10:32:43;11.77;;;3.10;;
27163;SDS011;14685;50.618;7.024;2023-04-25T10:35:15;8.18;;;2.53;;
27163;SDS011;14685;50.618;7.024;2023-04-25T10:37:57;7.90;;;2.38;;
27163;SDS011;14685;50.618;7.024;2023-04-25T10:40:24;9.52;;;2.55;;
27163;SDS011;14685;50.618;7.024;2023-04-25T10:42:52;12.75;;;3.58;;
27163;SDS011;14685;50.618;7.024;2023-04-25T10:45:21;11.52;;;3.15;;
27163;SDS011;14685;50.618;7.024;2023-04-25T10:47:48;10.05;;;2.92;;
27163;SDS011;14685;50.618;7.024;2023-04-25T10:50:15;11.43;;;3.38;;
27163;SDS011;14685;50.618;7.024;2023-04-25T10:52:45;11.38;;;3.33;;
27163;SDS011;14685;50.618;7.024;2023-04-25T10:55:12;10.85;;;2.95;;
27163;SDS011;14685;50.618;7.024;2023-04-25T10:57:39;10.57;;;3.47;;
27163;SDS011;14685;50.618;7.024;2023-04-25T11:02:45;12.43;;;3.22;;
27163;SDS011;14685;50.618;7.024;2023-04-25T11:05:19;8.93;;;2.83;;
27163;SDS011;14685;50.618;7.024;2023-04-25T11:07:50;6.15;;;2.60;;
27163;SDS011;14685;50.618;7.024;2023-04-25T11:10:32;10.85;;;3.25;;
27163;SDS011;14685;50.618;7.024;2023-04-25T11:13:03;9.48;;;2.67;;
27163;SDS011;14685;50.618;7.024;2023-04-25T11:15:30;11.50;;;2.95;;
27163;SDS011;14685;50.618;7.024;2023-04-25T11:18:00;10.60;;;2.47;;
27163;SDS011;14685;50.618;7.024;2023-04-25T11:20:28;10.15;;;3.53;;
27163;SDS011;14685;50.618;7.024;2023-04-25T11:22:57;5.88;;;2.30;;
27163;SDS011;14685;50.618;7.024;2023-04-25T11:25:26;11.60;;;3.78;;
27163;SDS011;14685;50.618;7.024;2023-04-25T11:27:56;8.23;;;3.05;;
27163;SDS011;14685;50.618;7.024;2023-04-25T11:30:25;11.18;;;3.50;;
27163;SDS011;14685;50.618;7.024;2023-04-25T11:32:53;10.23;;;3.20;;
27163;SDS011;14685;50.618;7.024;2023-04-25T11:35:21;9.32;;;2.90;;
27163;SDS011;14685;50.618;7.024;2023-04-25T11:37:49;7.13;;;2.45;;
27163;SDS011;14685;50.618;7.024;2023-04-25T11:40:16;13.00;;;2.92;;
27163;SDS011;14685;50.618;7.024;2023-04-25T11:42:44;13.50;;;3.00;;
27163;SDS011;14685;50.618;7.024;2023-04-25T11:45:13;15.20;;;2.80;;
27163;SDS011;14685;50.618;7.024;2023-04-25T11:47:42;6.57;;;2.90;;
27163;SDS011;14685;50.618;7.024;2023-04-25T11:50:09;17.95;;;3.20;;
27163;SDS011;14685;50.618;7.024;2023-04-25T11:52:41;10.13;;;3.35;;
27163;SDS011;14685;50.618;7.024;2023-04-25T11:55:12;11.63;;;3.28;;
27163;SDS011;14685;50.618;7.024;2023-04-25T11:57:43;11.35;;;3.58;;
27163;SDS011;14685;50.618;7.024;2023-04-25T12:02:44;8.55;;;2.72;;
27163;SDS011;14685;50.618;7.024;2023-04-25T12:05:18;7.22;;;2.95;;
27163;SDS011;14685;50.618;7.024;2023-04-25T12:07:57;10.77;;;2.90;;
27163;SDS011;14685;50.618;7.024;2023-04-25T12:10:24;6.97;;;2.38;;
27163;SDS011;14685;50.618;7.024;2023-04-25T12:12:52;11.45;;;3.05;;
27163;SDS011;14685;50.618;7.024;2023-04-25T12:15:24;10.52;;;2.60;;
27163;SDS011;14685;50.618;7.024;2023-04-25T12:17:52;9.15;;;2.85;;
27163;SDS011;14685;50.618;7.024;2023-04-25T12:20:23;11.27;;;3.58;;
27163;SDS011;14685;50.618;7.024;2023-04-25T12:22:52;13.02;;;3.25;;
27163;SDS011;14685;50.618;7.024;2023-04-25T12:25:35;11.75;;;3.47;;
27163;SDS011;14685;50.618;7.024;2023-04-25T12:31:02;9.68;;;3.22;;
27163;SDS011;14685;50.618;7.024;2023-04-25T12:33:36;13.18;;;3.55;;
27163;SDS011;14685;50.618;7.024;2023-04-25T12:36:03;13.55;;;3.28;;
27163;SDS011;14685;50.618;7.024;2023-04-25T12:38:38;9.18;;;3.00;;
27163;SDS011;14685;50.618;7.024;2023-04-25T12:41:06;12.00;;;3.42;;
27163;SDS011;14685;50.618;7.024;2023-04-25T12:43:33;14.15;;;3.80;;
27163;SDS011;14685;50.618;7.024;2023-04-25T12:46:00;8.32;;;2.83;;
27163;SDS011;14685;50.618;7.024;2023-04-25T12:48:27;11.45;;;3.10;;
27163;SDS011;14685;50.618;7.024;2023-04-25T12:50:54;9.52;;;2.55;;
27163;SDS011;14685;50.618;7.024;2023-04-25T12:53:22;10.15;;;3.15;;
27163;SDS011;14685;50.618;7.024;2023-04-25T12:55:50;12.32;;;2.90;;
27163;SDS011;14685;50.618;7.024;2023-04-25T12:58:18;10.88;;;3.15;;
27163;SDS011;14685;50.618;7.024;2023-04-25T13:00:45;8.75;;;2.65;;
27163;SDS011;14685;50.618;7.024;2023-04-25T13:03:13;9.48;;;2.90;;
27163;SDS011;14685;50.618;7.024;2023-04-25T13:05:41;10.55;;;3.20;;
27163;SDS011;14685;50.618;7.024;2023-04-25T13:08:08;9.32;;;2.90;;
27163;SDS011;14685;50.618;7.024;2023-04-25T13:10:35;13.02;;;2.75;;
27163;SDS011;14685;50.618;7.024;2023-04-25T13:13:04;9.80;;;3.15;;
27163;SDS011;14685;50.618;7.024;2023-04-25T13:15:33;8.43;;;2.50;;
27163;SDS011;14685;50.618;7.024;2023-04-25T13:18:00;7.65;;;2.97;;
27163;SDS011;14685;50.618;7.024;2023-04-25T13:20:28;13.43;;;3.47;;
27163;SDS011;14685;50.618;7.024;2023-04-25T13:22:55;12.35;;;3.20;;
27163;SDS011;14685;50.618;7.024;2023-04-25T13:25:26;8.38;;;3.28;;
27163;SDS011;14685;50.618;7.024;2023-04-25T13:27:54;7.30;;;2.42;;
27163;SDS011;14685;50.618;7.024;2023-04-25T13:30:21;6.88;;;2.70;;
27163;SDS011;14685;50.618;7.024;2023-04-25T13:32:48;11.95;;;2.95;;
27163;SDS011;14685;50.618;7.024;2023-04-25T13:35:16;10.63;;;3.60;;
27163;SDS011;14685;50.618;7.024;2023-04-25T13:37:43;11.02;;;3.25;;
27163;SDS011;14685;50.618;7.024;2023-04-25T13:40:10;10.57;;;2.97;;
27163;SDS011;14685;50.618;7.024;2023-04-25T13:42:37;9.52;;;3.20;;
27163;SDS011;14685;50.618;7.024;2023-04-25T13:45:05;14.20;;;3.58;;
27163;SDS011;14685;50.618;7.024;2023-04-25T13:47:33;11.05;;;3.65;;
27163;SDS011;14685;50.618;7.024;2023-04-25T13:50:01;8.32;;;2.70;;
27163;SDS011;14685;50.618;7.024;2023-04-25T13:52:29;9.70;;;3.25;;
27163;SDS011;14685;50.618;7.024;2023-04-25T13:54:56;10.75;;;3.25;;
27163;SDS011;14685;50.618;7.024;2023-04-25T13:57:24;9.30;;;3.42;;
27163;SDS011;14685;50.618;7.024;2023-04-25T13:59:51;10.63;;;2.47;;
27163;SDS011;14685;50.618;7.024;2023-04-25T14:02:19;14.05;;;3.20;;
27163;SDS011;14685;50.618;7.024;2023-04-25T14:04:46;12.73;;;3.22;;
27163;SDS011;14685;50.618;7.024;2023-04-25T14:07:13;8.60;;;2.67;;
27163;SDS011;14685;50.618;7.024;2023-04-25T14:09:42;5.15;;;2.20;;
27163;SDS011;14685;50.618;7.024;2023-04-25T14:12:09;7.82;;;2.28;;
27163;SDS011;14685;50.618;7.024;2023-04-25T14:14:38;7.85;;;2.45;;
27163;SDS011;14685;50.618;7.024;2023-04-25T14:17:05;6.35;;;2.25;;
27163;SDS011;14685;50.618;7.024;2023-04-25T14:19:33;7.00;;;2.40;;
27163;SDS011;14685;50.618;7.024;2023-04-25T14:22:00;6.90;;;2.53;;
27163;SDS011;14685;50.618;7.024;2023-04-25T14:24:27;6.07;;;2.30;;
27163;SDS011;14685;50.618;7.024;2023-04-25T14:26:57;9.00;;;2.45;;
27163;SDS011;14685;50.618;7.024;2023-04-25T14:29:25;8.18;;;2.33;;
27163;SDS011;14685;50.618;7.024;2023-04-25T14:31:52;6.28;;;2.50;;
27163;SDS011;14685;50.618;7.024;2023-04-25T14:34:20;7.38;;;2.50;;
27163;SDS011;14685;50.618;7.024;2023-04-25T14:36:47;8.18;;;2.78;;
27163;SDS011;14685;50.618;7.024;2023-04-25T14:39:14;7.88;;;2.80;;
27163;SDS011;14685;50.618;7.024;2023-04-25T14:41:41;9.27;;;2.70;;
27163;SDS011;14685;50.618;7.024;2023-04-25T14:44:07;7.50;;;2.40;;
27163;SDS011;14685;50.618;7.024;2023-04-25T14:46:36;8.55;;;2.83;;
27163;SDS011;14685;50.618;7.024;2023-04-25T14:49:03;11.40;;;2.78;;
27163;SDS011;14685;50.618;7.024;2023-04-25T14:51:30;6.88;;;2.80;;